Time;durP1;ratioP1;P1;durP2;ratioP2;P2;SDS_P1;SDS_P2;PMS_P1;PMS_P2;Temp;Humidity;BMP_temperature;BMP_pressure;BME280_temperature;BME280_humidity;BME280_pressure;Samples;Min_cycle;Max_cycle;Signal;HPM_P1;HPM_P2
2020/12/24 05:02:22;;;;;;;0.50;0.40;;;8.50;99.90;;;;;;5084858;23;20525;-64
2020/12/24 05:04:52;;;;;;;0.63;0.63;;;8.60;99.90;;;;;;4978098;28;20458;-64
2020/12/24 05:07:18;;;;;;;0.40;0.40;;;8.70;99.90;;;;;;4977643;28;20446;-63
2020/12/24 05:09:48;;;;;;;3.87;0.97;;;8.70;99.90;;;;;;4987675;28;20941;-64
2020/12/24 05:12:25;;;;;;;0.60;0.47;;;8.60;99.90;;;;;;4981643;28;21051;-64
2020/12/24 05:14:52;;;;;;;1.70;0.70;;;8.60;99.90;;;;;;4978361;28;20450;-64
2020/12/24 05:17:22;;;;;;;1.60;0.80;;;8.60;99.90;;;;;;4978064;28;20455;-64
2020/12/24 05:19:59;;;;;;;0.57;0.57;;;8.60;99.90;;;;;;4985773;28;20443;-64
2020/12/24 05:22:26;;;;;;;1.63;0.63;;;8.70;99.90;;;;;;4986910;28;20481;-65
2020/12/24 05:24:52;;;;;;;0.53;0.50;;;8.70;99.90;;;;;;4987221;28;20451;-64
2020/12/24 05:27:20;;;;;;;0.63;0.53;;;8.60;99.90;;;;;;4987055;28;20455;-64
2020/12/24 05:29:49;;;;;;;2.30;0.87;;;8.60;99.90;;;;;;4986986;28;20454;-64
2020/12/24 05:32:16;;;;;;;0.53;0.50;;;8.60;99.90;;;;;;4988260;28;20505;-64
2020/12/24 05:34:43;;;;;;;1.70;0.57;;;8.60;99.90;;;;;;4986665;28;20537;-64
2020/12/24 05:37:11;;;;;;;1.90;0.60;;;8.50;99.90;;;;;;4987530;28;20454;-65
2020/12/24 05:39:37;;;;;;;0.50;0.50;;;8.40;99.90;;;;;;4988739;28;20450;-65
2020/12/24 05:42:05;;;;;;;0.67;0.60;;;8.40;99.90;;;;;;4987282;28;20497;-64
2020/12/24 05:44:31;;;;;;;2.17;0.67;;;8.30;99.90;;;;;;4980539;28;20450;-63
2020/12/24 05:46:58;;;;;;;0.57;0.57;;;8.20;99.90;;;;;;4978177;28;20485;-65
2020/12/24 05:49:25;;;;;;;2.63;0.70;;;8.20;99.90;;;;;;4977722;28;20463;-65
2020/12/24 05:51:54;;;;;;;0.60;0.60;;;8.10;99.90;;;;;;4977134;28;20474;-64
2020/12/24 05:54:21;;;;;;;0.53;0.50;;;8.10;99.90;;;;;;4976790;28;20813;-65
2020/12/24 05:56:48;;;;;;;1.00;0.50;;;8.00;99.90;;;;;;4976903;28;20457;-65
2020/12/24 05:59:15;;;;;;;0.70;0.50;;;8.00;99.90;;;;;;4977293;28;20462;-65
2020/12/24 06:01:59;;;;;;;0.60;0.60;;;8.00;99.90;;;;;;4976383;28;20486;-65
2020/12/24 06:04:35;;;;;;;0.70;0.50;;;7.90;99.90;;;;;;4976672;28;20474;-65
2020/12/24 06:07:08;;;;;;;0.77;0.50;;;7.90;99.90;;;;;;4976364;28;20466;-65
2020/12/24 06:09:36;;;;;;;0.80;0.53;;;7.90;99.90;;;;;;4976389;28;20526;-65
2020/12/24 06:12:18;;;;;;;1.30;0.90;;;7.90;99.90;;;;;;4976696;28;20509;-65
2020/12/24 06:14:47;;;;;;;0.70;0.60;;;7.90;99.90;;;;;;4976104;28;20445;-65
2020/12/24 06:17:14;;;;;;;1.70;0.60;;;8.00;99.90;;;;;;4976220;28;20545;-65
2020/12/24 06:19:41;;;;;;;0.67;0.67;;;8.00;99.90;;;;;;4976195;28;20454;-65
2020/12/24 06:22:09;;;;;;;3.63;0.67;;;8.00;99.90;;;;;;4976310;28;20486;-65
2020/12/24 06:24:39;;;;;;;5.20;0.60;;;7.90;99.90;;;;;;4976036;28;20462;-65
2020/12/24 06:27:10;;;;;;;0.50;0.50;;;7.90;99.90;;;;;;4975931;28;20483;-65
2020/12/24 06:29:42;;;;;;;2.03;0.60;;;7.90;99.90;;;;;;4976764;28;20443;-65
2020/12/24 06:32:12;;;;;;;1.70;0.70;;;7.90;99.90;;;;;;4975838;28;20474;-65
2020/12/24 06:34:40;;;;;;;1.67;0.70;;;7.90;99.90;;;;;;4976020;28;20455;-65
2020/12/24 06:37:16;;;;;;;1.23;0.80;;;7.80;99.90;;;;;;4975751;28;20513;-65
2020/12/24 06:39:43;;;;;;;1.33;0.47;;;7.90;99.90;;;;;;4976023;28;20482;-65
2020/12/24 06:42:39;;;;;;;0.57;0.57;;;7.90;99.90;;;;;;4975985;28;20474;-65
2020/12/24 06:45:07;;;;;;;0.80;0.73;;;7.90;99.90;;;;;;4975480;28;21040;-64
2020/12/24 06:47:33;;;;;;;0.80;0.57;;;7.90;99.90;;;;;;4975724;28;20458;-63
2020/12/24 06:50:00;;;;;;;1.37;0.60;;;7.90;99.90;;;;;;4975677;28;20958;-63
2020/12/24 06:52:31;;;;;;;1.27;0.80;;;7.90;99.90;;;;;;4975912;28;20478;-64
2020/12/24 06:55:13;;;;;;;1.33;0.57;;;7.90;99.90;;;;;;4975300;28;20463;-64
2020/12/24 06:57:41;;;;;;;0.77;0.70;;;7.80;99.90;;;;;;4976037;28;20483;-65
2020/12/24 07:00:19;;;;;;;1.43;0.90;;;7.80;99.90;;;;;;4975692;28;20839;-65
2020/12/24 07:02:46;;;;;;;0.93;0.60;;;7.80;99.90;;;;;;4975804;28;20435;-64
2020/12/24 07:05:44;;;;;;;0.57;0.50;;;7.90;99.90;;;;;;4989743;28;20454;-65
2020/12/24 07:08:12;;;;;;;1.43;0.70;;;7.90;99.90;;;;;;4980111;28;20964;-65
2020/12/24 07:10:49;;;;;;;0.77;0.73;;;7.90;99.90;;;;;;4976648;28;20471;-64
2020/12/24 07:13:31;;;;;;;2.00;0.67;;;7.80;99.90;;;;;;4976253;28;20455;-65
2020/12/24 07:15:58;;;;;;;1.73;0.77;;;7.90;99.90;;;;;;4976775;28;20439;-65
2020/12/24 07:18:24;;;;;;;2.40;1.10;;;7.90;99.90;;;;;;4976597;28;20454;-64
2020/12/24 07:20:52;;;;;;;1.40;0.93;;;8.00;99.90;;;;;;4975754;28;20533;-65
2020/12/24 07:23:28;;;;;;;1.30;0.87;;;8.00;99.90;;;;;;4975487;28;20461;-65
2020/12/24 07:25:54;;;;;;;0.83;0.70;;;8.10;99.90;;;;;;4975529;28;20459;-64
2020/12/24 07:28:21;;;;;;;1.23;0.90;;;8.10;99.90;;;;;;4975534;28;20938;-65
2020/12/24 07:30:56;;;;;;;3.53;0.90;;;8.10;99.90;;;;;;4976152;28;20508;-65
2020/12/24 07:33:22;;;;;;;2.33;0.90;;;8.20;99.90;;;;;;4976308;28;20451;-65
2020/12/24 07:35:48;;;;;;;1.23;0.80;;;8.10;99.90;;;;;;4977791;28;20443;-64
2020/12/24 07:38:18;;;;;;;3.23;0.70;;;8.10;99.90;;;;;;4976572;28;20454;-64
2020/12/24 07:40:45;;;;;;;1.43;0.90;;;8.10;99.90;;;;;;4977050;28;20475;-64
2020/12/24 07:43:11;;;;;;;2.67;1.10;;;8.10;99.90;;;;;;4976691;28;20466;-64
2020/12/24 07:45:38;;;;;;;1.70;1.33;;;8.20;99.90;;;;;;4975692;28;20537;-65
2020/12/24 07:48:11;;;;;;;3.20;1.03;;;8.30;99.90;;;;;;4975067;28;20563;-65
2020/12/24 07:50:37;;;;;;;2.33;1.00;;;8.40;99.90;;;;;;4975451;28;20510;-64
2020/12/24 07:53:03;;;;;;;4.57;1.30;;;8.50;99.90;;;;;;4975456;28;20945;-65
2020/12/24 07:55:29;;;;;;;6.60;1.50;;;8.50;99.90;;;;;;4975007;28;20509;-65
2020/12/24 07:58:06;;;;;;;2.13;1.23;;;8.50;99.90;;;;;;4975804;28;20471;-65
2020/12/24 08:00:39;;;;;;;3.53;0.90;;;8.60;99.90;;;;;;4975212;28;20853;-65
2020/12/24 08:03:05;;;;;;;2.70;1.10;;;8.70;99.90;;;;;;4975415;28;20876;-64
2020/12/24 08:05:32;;;;;;;2.00;0.93;;;8.70;99.90;;;;;;4975190;28;20478;-65
2020/12/24 08:07:58;;;;;;;1.70;0.97;;;8.80;99.90;;;;;;4977710;28;20972;-64
2020/12/24 08:10:24;;;;;;;5.57;1.30;;;8.80;99.90;;;;;;4978915;28;20461;-63
2020/12/24 08:12:50;;;;;;;4.20;1.70;;;8.80;99.90;;;;;;4978820;28;20458;-63
2020/12/24 08:15:18;;;;;;;5.80;1.50;;;8.80;99.90;;;;;;4978904;28;20818;-63
2020/12/24 08:17:54;;;;;;;3.37;1.33;;;8.70;99.90;;;;;;4978778;28;20458;-64
2020/12/24 08:20:22;;;;;;;2.30;1.10;;;8.70;99.90;;;;;;4978509;28;20490;-64
2020/12/24 08:22:56;;;;;;;4.40;1.57;;;8.70;99.90;;;;;;4978623;28;20461;-64
2020/12/24 08:25:23;;;;;;;3.30;1.67;;;8.70;99.90;;;;;;4979760;28;20438;-63
2020/12/24 08:27:49;;;;;;;4.07;1.27;;;8.70;99.90;;;;;;4978397;28;20465;-64
2020/12/24 08:30:17;;;;;;;4.43;1.27;;;8.70;99.90;;;;;;4978157;28;20461;-64
2020/12/24 08:32:43;;;;;;;3.87;1.13;;;8.70;99.90;;;;;;4978530;28;20465;-63
2020/12/24 08:35:11;;;;;;;4.80;1.03;;;8.70;99.90;;;;;;4978258;28;20498;-64
2020/12/24 08:37:37;;;;;;;1.97;1.17;;;8.70;99.90;;;;;;4978962;28;20458;-64
2020/12/24 08:40:20;;;;;;;5.70;1.47;;;8.70;99.90;;;;;;4978321;28;20455;-64
2020/12/24 08:42:47;;;;;;;2.10;0.93;;;8.70;99.90;;;;;;4978221;28;20454;-64
2020/12/24 08:45:14;;;;;;;2.60;0.80;;;8.60;99.90;;;;;;4978115;28;20968;-64
2020/12/24 08:47:42;;;;;;;2.53;0.90;;;8.60;99.90;;;;;;4978079;28;20961;-64
2020/12/24 08:50:08;;;;;;;1.97;1.03;;;8.60;99.90;;;;;;4978258;28;20462;-64
2020/12/24 08:52:36;;;;;;;3.57;0.90;;;8.50;99.90;;;;;;4977959;28;20541;-64
2020/12/24 08:55:05;;;;;;;2.07;0.70;;;8.60;99.90;;;;;;4977807;28;20941;-64
2020/12/24 08:57:32;;;;;;;3.33;0.87;;;8.60;99.90;;;;;;4978046;28;20513;-63
2020/12/24 08:59:59;;;;;;;1.77;0.70;;;8.60;99.90;;;;;;4977666;28;20454;-62
2020/12/24 09:02:26;;;;;;;1.90;0.60;;;8.60;99.90;;;;;;4977742;28;20486;-63
2020/12/24 09:04:54;;;;;;;2.53;0.90;;;8.60;99.90;;;;;;4977787;28;20466;-63
2020/12/24 09:07:28;;;;;;;1.33;0.80;;;8.60;99.90;;;;;;4977708;28;20967;-63
2020/12/24 09:10:05;;;;;;;0.90;0.87;;;8.60;99.90;;;;;;4977810;28;20506;-63
2020/12/24 09:12:32;;;;;;;3.33;1.67;;;8.60;99.90;;;;;;4977329;28;20474;-63
2020/12/24 09:14:59;;;;;;;1.73;0.70;;;8.60;99.90;;;;;;4977354;28;20461;-64
2020/12/24 09:17:25;;;;;;;1.13;1.03;;;8.50;99.90;;;;;;4976777;28;20454;-64
2020/12/24 09:20:01;;;;;;;0.90;0.70;;;8.50;99.90;;;;;;4977245;28;20455;-62
2020/12/24 09:22:28;;;;;;;1.77;0.60;;;8.60;99.90;;;;;;4977075;28;20528;-64
2020/12/24 09:24:54;;;;;;;1.67;0.70;;;8.50;99.90;;;;;;4977238;28;20458;-62
2020/12/24 09:27:20;;;;;;;1.70;0.83;;;8.40;99.90;;;;;;4977415;28;20474;-62
2020/12/24 09:29:46;;;;;;;1.67;0.80;;;8.40;99.90;;;;;;4977410;28;20459;-64
2020/12/24 09:32:13;;;;;;;0.97;0.60;;;8.30;99.90;;;;;;4977204;28;20506;-64
2020/12/24 09:34:39;;;;;;;0.97;0.50;;;8.30;99.90;;;;;;4976849;28;20455;-64
2020/12/24 09:37:06;;;;;;;0.90;0.60;;;8.60;99.90;;;;;;4977068;28;20530;-64
2020/12/24 09:39:33;;;;;;;1.07;0.50;;;8.70;99.90;;;;;;4976815;28;20458;-64
2020/12/24 09:41:59;;;;;;;6.03;3.13;;;8.60;99.90;;;;;;4976876;28;20876;-64
2020/12/24 09:44:25;;;;;;;84.77;21.60;;;8.90;99.90;;;;;;4976927;28;20463;-64
2020/12/24 09:46:51;;;;;;;37.97;10.10;;;8.80;99.90;;;;;;4977007;28;20482;-64
2020/12/24 09:49:18;;;;;;;9.00;4.30;;;9.00;99.90;;;;;;4976866;28;20462;-63
2020/12/24 09:51:44;;;;;;;0.70;0.70;;;9.10;99.90;;;;;;4976738;28;20475;-64
2020/12/24 09:54:11;;;;;;;0.70;0.63;;;9.10;99.90;;;;;;4981260;28;20458;-64
2020/12/24 09:56:37;;;;;;;1.63;0.57;;;9.00;99.90;;;;;;4993921;28;20450;-64
2020/12/24 09:59:04;;;;;;;2.50;0.90;;;9.00;99.90;;;;;;4984025;28;20455;-65
2020/12/24 10:01:30;;;;;;;0.83;0.60;;;8.90;99.90;;;;;;4976654;28;20487;-65
2020/12/24 10:03:56;;;;;;;0.50;0.50;;;8.90;99.90;;;;;;4976578;28;20462;-64
2020/12/24 10:06:25;;;;;;;2.50;0.67;;;8.90;99.90;;;;;;4976524;28;20479;-64
2020/12/24 10:08:51;;;;;;;0.60;0.60;;;8.80;99.90;;;;;;4976382;28;20455;-63
2020/12/24 10:11:19;;;;;;;2.53;0.70;;;8.80;99.90;;;;;;4976493;28;20486;-65
2020/12/24 10:13:45;;;;;;;0.50;0.50;;;8.90;99.90;;;;;;4976694;28;20461;-63
2020/12/24 10:16:11;;;;;;;3.27;1.47;;;8.90;99.90;;;;;;4976628;28;20821;-63
2020/12/24 10:18:37;;;;;;;1.00;0.67;;;9.00;99.90;;;;;;4976514;28;20459;-65
2020/12/24 10:21:04;;;;;;;0.63;0.53;;;9.10;99.90;;;;;;4976504;28;20477;-65
2020/12/24 10:23:30;;;;;;;1.43;0.80;;;9.20;99.90;;;;;;4977775;28;20455;-65
2020/12/24 10:25:56;;;;;;;1.23;0.57;;;9.20;99.90;;;;;;4976078;28;20546;-64
2020/12/24 10:28:23;;;;;;;2.83;0.80;;;9.20;99.90;;;;;;4975967;28;20459;-65
2020/12/24 10:30:50;;;;;;;1.83;0.60;;;9.20;99.90;;;;;;4974694;28;20485;-64
2020/12/24 10:33:16;;;;;;;0.83;0.60;;;9.20;99.90;;;;;;4975594;28;20450;-64
2020/12/24 10:35:42;;;;;;;0.53;0.53;;;9.30;99.90;;;;;;4975402;28;20558;-65
2020/12/24 10:38:09;;;;;;;0.67;0.67;;;9.20;99.90;;;;;;4975716;28;20813;-65
2020/12/24 10:40:35;;;;;;;1.00;1.00;;;9.20;99.90;;;;;;4977237;28;20474;-64
2020/12/24 10:43:02;;;;;;;1.03;1.03;;;9.20;99.90;;;;;;4977730;28;20486;-65
2020/12/24 10:45:29;;;;;;;1.27;1.13;;;9.20;99.90;;;;;;4976500;28;20820;-65
2020/12/24 10:47:55;;;;;;;1.27;1.17;;;9.20;99.90;;;;;;4975624;28;20458;-65
2020/12/24 10:50:21;;;;;;;1.43;1.07;;;9.30;99.90;;;;;;4975456;28;20467;-65
2020/12/24 10:52:47;;;;;;;2.47;0.90;;;9.40;99.90;;;;;;4975781;28;20455;-65
2020/12/24 10:55:13;;;;;;;0.70;0.70;;;9.50;99.90;;;;;;4975529;28;20459;-65
2020/12/24 10:57:40;;;;;;;1.80;1.13;;;9.50;99.90;;;;;;4975173;28;20455;-65
2020/12/24 11:00:06;;;;;;;1.17;0.80;;;9.50;99.90;;;;;;4975250;28;21008;-65
2020/12/24 11:02:34;;;;;;;0.73;0.73;;;9.50;99.90;;;;;;4975112;28;20497;-65
2020/12/24 11:05:00;;;;;;;1.13;0.83;;;9.50;99.90;;;;;;4975256;28;20957;-64
2020/12/24 11:07:26;;;;;;;0.80;0.80;;;9.40;99.90;;;;;;4975727;28;20482;-65
2020/12/24 11:09:52;;;;;;;1.43;0.90;;;9.40;99.90;;;;;;4975686;28;20459;-65
2020/12/24 11:12:18;;;;;;;0.93;0.67;;;9.40;99.90;;;;;;4976088;28;20479;-65
2020/12/24 11:14:45;;;;;;;0.60;0.60;;;9.30;99.90;;;;;;4975403;28;20458;-65
2020/12/24 11:17:11;;;;;;;1.17;0.70;;;9.40;99.90;;;;;;4974986;28;20929;-65
2020/12/24 11:19:38;;;;;;;0.70;0.53;;;9.40;99.90;;;;;;4975603;28;20459;-65
2020/12/24 11:22:04;;;;;;;1.13;0.40;;;9.70;99.90;;;;;;4975880;28;20517;-65
2020/12/24 11:24:30;;;;;;;1.27;0.53;;;9.90;99.90;;;;;;4975720;28;20455;-65
2020/12/24 11:26:56;;;;;;;0.53;0.53;;;10.10;99.90;;;;;;4975877;28;20478;-65
2020/12/24 11:29:23;;;;;;;0.60;0.60;;;10.10;99.90;;;;;;4975469;28;20513;-66
2020/12/24 11:31:49;;;;;;;0.50;0.50;;;10.10;99.90;;;;;;4975542;28;20835;-65
2020/12/24 11:34:17;;;;;;;0.53;0.53;;;10.10;99.90;;;;;;4975228;28;20463;-65
2020/12/24 11:36:45;;;;;;;1.13;1.13;;;10.00;99.90;;;;;;4974692;28;20964;-65
2020/12/24 11:39:11;;;;;;;3.17;2.87;;;10.00;99.90;;;;;;4974989;28;20466;-65
2020/12/24 11:41:37;;;;;;;2.33;2.13;;;10.00;99.90;;;;;;4974589;28;20479;-65
2020/12/24 11:44:04;;;;;;;4.13;3.73;;;10.20;99.90;;;;;;4975142;28;20821;-65
2020/12/24 11:46:30;;;;;;;7.27;3.80;;;10.20;99.90;;;;;;4975227;28;20470;-64
2020/12/24 11:48:57;;;;;;;3.57;3.27;;;10.20;99.90;;;;;;4974821;28;20455;-65
2020/12/24 11:51:23;;;;;;;3.87;3.40;;;10.30;99.90;;;;;;4974745;28;20521;-65
2020/12/24 11:53:52;;;;;;;1.67;1.57;;;10.40;99.90;;;;;;4974427;28;20455;-65
2020/12/24 11:56:21;;;;;;;1.20;1.10;;;10.50;99.90;;;;;;4974945;28;20549;-65
2020/12/24 11:58:48;;;;;;;0.87;0.87;;;10.60;99.90;;;;;;4974902;28;20458;-65
2020/12/24 12:01:15;;;;;;;0.70;0.70;;;10.60;99.90;;;;;;4974393;28;20482;-65
2020/12/24 12:03:41;;;;;;;0.53;0.40;;;10.50;99.90;;;;;;4974730;28;20459;-65
2020/12/24 12:06:07;;;;;;;0.50;0.50;;;10.60;99.90;;;;;;4975029;28;20479;-65
2020/12/24 12:08:34;;;;;;;0.87;0.57;;;10.60;99.90;;;;;;4975104;28;20463;-65
2020/12/24 12:11:02;;;;;;;0.30;0.30;;;10.50;99.90;;;;;;4974731;28;20529;-65
2020/12/24 12:13:28;;;;;;;0.47;0.47;;;10.60;99.90;;;;;;4974336;28;20439;-65
2020/12/24 12:15:54;;;;;;;0.60;0.60;;;10.60;99.90;;;;;;4974736;28;20816;-66
2020/12/24 12:18:20;;;;;;;0.40;0.40;;;10.60;99.90;;;;;;4974426;28;21034;-65
2020/12/24 12:20:46;;;;;;;0.97;0.50;;;10.60;99.90;;;;;;4974439;28;20478;-66
2020/12/24 12:23:13;;;;;;;0.90;0.60;;;10.60;99.90;;;;;;4974317;28;20859;-64
2020/12/24 12:25:39;;;;;;;1.40;0.50;;;10.80;99.90;;;;;;4974350;28;20458;-64
2020/12/24 12:28:06;;;;;;;0.40;0.40;;;10.90;99.90;;;;;;4974523;28;20458;-64
2020/12/24 12:30:33;;;;;;;0.40;0.40;;;10.90;99.90;;;;;;4974663;28;20466;-65
2020/12/24 12:32:59;;;;;;;0.40;0.40;;;10.90;99.90;;;;;;4974871;28;20465;-65
2020/12/24 12:35:25;;;;;;;0.80;0.50;;;11.00;99.90;;;;;;4974625;28;20466;-65
2020/12/24 12:37:51;;;;;;;0.40;0.40;;;10.90;99.90;;;;;;4974593;28;20435;-65
2020/12/24 12:40:17;;;;;;;0.50;0.47;;;10.90;99.90;;;;;;4974444;28;20461;-65
2020/12/24 12:42:44;;;;;;;0.70;0.70;;;10.70;99.90;;;;;;4974801;28;20505;-65
2020/12/24 12:45:11;;;;;;;0.50;0.50;;;10.60;99.90;;;;;;4974664;28;20455;-65
2020/12/24 12:47:38;;;;;;;0.30;0.30;;;10.70;99.90;;;;;;4974039;28;20482;-65
2020/12/24 12:50:07;;;;;;;0.60;0.60;;;10.60;99.90;;;;;;4974394;28;20513;-65
2020/12/24 12:52:33;;;;;;;1.23;0.47;;;10.60;99.90;;;;;;4974807;28;20474;-65
2020/12/24 12:55:00;;;;;;;0.60;0.60;;;10.70;99.90;;;;;;4977743;28;20462;-65
2020/12/24 12:57:26;;;;;;;0.50;0.40;;;10.60;99.90;;;;;;4977701;28;20454;-65
2020/12/24 12:59:52;;;;;;;0.60;0.60;;;10.50;99.90;;;;;;4977952;28;20463;-65
2020/12/24 13:02:19;;;;;;;0.83;0.63;;;10.30;99.90;;;;;;4977661;28;20490;-65
2020/12/24 13:04:45;;;;;;;0.40;0.40;;;10.30;99.90;;;;;;4977836;28;20833;-65
2020/12/24 13:07:12;;;;;;;0.60;0.60;;;10.30;99.90;;;;;;4977759;28;20478;-65
2020/12/24 13:09:38;;;;;;;0.87;0.73;;;10.20;99.90;;;;;;4977252;28;20454;-65
2020/12/24 13:12:04;;;;;;;0.50;0.50;;;10.20;99.90;;;;;;4977358;28;20478;-65
2020/12/24 13:14:30;;;;;;;0.50;0.50;;;10.10;99.90;;;;;;4977912;28;20459;-65
2020/12/24 13:16:57;;;;;;;0.80;0.40;;;10.10;99.90;;;;;;4977801;28;20457;-65
2020/12/24 13:19:24;;;;;;;1.50;0.70;;;10.20;99.90;;;;;;4977388;28;20463;-65
2020/12/24 13:21:50;;;;;;;0.43;0.43;;;10.20;99.90;;;;;;4977669;28;20482;-65
2020/12/24 13:24:17;;;;;;;0.40;0.40;;;10.20;99.90;;;;;;4977223;28;20937;-65
2020/12/24 13:26:43;;;;;;;0.70;0.60;;;10.20;99.90;;;;;;4977058;28;20533;-65
2020/12/24 13:29:10;;;;;;;0.50;0.50;;;10.20;99.90;;;;;;4977307;28;20454;-65
2020/12/24 13:31:36;;;;;;;0.70;0.70;;;10.20;99.90;;;;;;4976975;28;20475;-65
2020/12/24 13:34:03;;;;;;;0.93;0.50;;;10.50;99.90;;;;;;4977473;28;20542;-65
2020/12/24 13:36:30;;;;;;;0.80;0.80;;;10.90;99.90;;;;;;4976754;28;20458;-65
2020/12/24 13:38:56;;;;;;;0.50;0.50;;;11.10;99.90;;;;;;4977097;28;20459;-65
2020/12/24 13:41:22;;;;;;;0.50;0.50;;;11.10;99.90;;;;;;4978473;28;20478;-65
2020/12/24 13:43:49;;;;;;;0.83;0.40;;;11.00;99.90;;;;;;4978124;28;21077;-65
2020/12/24 13:46:16;;;;;;;0.60;0.60;;;10.90;99.90;;;;;;4976673;28;20479;-65
2020/12/24 13:48:42;;;;;;;1.40;0.80;;;10.90;99.90;;;;;;4976920;28;20525;-65
2020/12/24 13:51:08;;;;;;;0.50;0.50;;;11.10;99.90;;;;;;4977245;28;20478;-65
2020/12/24 13:53:35;;;;;;;0.53;0.53;;;11.20;99.90;;;;;;4977284;28;20823;-65
2020/12/24 13:56:03;;;;;;;1.13;0.47;;;11.40;99.90;;;;;;4977774;28;20451;-65
2020/12/24 13:58:29;;;;;;;0.53;0.53;;;11.50;99.90;;;;;;4977517;28;20486;-65
2020/12/24 14:00:55;;;;;;;0.50;0.50;;;11.20;99.90;;;;;;4976701;28;20854;-65
2020/12/24 14:03:21;;;;;;;1.03;0.50;;;11.20;99.90;;;;;;4976748;28;20459;-66
2020/12/24 14:05:47;;;;;;;0.50;0.50;;;11.20;99.90;;;;;;4976590;28;20458;-66
2020/12/24 14:08:14;;;;;;;0.77;0.60;;;11.20;99.90;;;;;;4976509;28;20454;-65
2020/12/24 14:10:41;;;;;;;0.50;0.50;;;11.30;99.90;;;;;;4976681;28;20478;-63
2020/12/24 14:13:07;;;;;;;0.63;0.63;;;11.40;99.90;;;;;;4976579;28;20462;-65
2020/12/24 14:15:33;;;;;;;0.73;0.70;;;11.60;99.90;;;;;;4976449;28;20462;-64
2020/12/24 14:17:59;;;;;;;0.60;0.60;;;11.80;99.90;;;;;;4976503;28;20458;-64
2020/12/24 14:20:26;;;;;;;0.83;0.80;;;11.90;99.90;;;;;;4977065;28;20450;-64
2020/12/24 14:22:52;;;;;;;0.50;0.50;;;11.90;99.90;;;;;;4976206;28;20492;-66
2020/12/24 14:25:18;;;;;;;2.80;0.73;;;11.60;99.90;;;;;;4976631;28;20455;-65
2020/12/24 14:27:45;;;;;;;0.60;0.60;;;11.50;99.90;;;;;;4977389;28;20478;-66
2020/12/24 14:30:12;;;;;;;1.00;1.00;;;11.40;99.90;;;;;;4976586;28;20455;-66
2020/12/24 14:32:38;;;;;;;1.00;1.00;;;11.20;99.90;;;;;;4975974;28;20474;-66
2020/12/24 14:35:05;;;;;;;0.80;0.80;;;10.90;99.90;;;;;;4976677;28;20454;-65
2020/12/24 14:37:31;;;;;;;0.80;0.80;;;10.70;99.90;;;;;;4976605;28;20458;-65
2020/12/24 14:39:57;;;;;;;2.00;1.00;;;10.50;99.90;;;;;;4976323;28;20462;-65
2020/12/24 14:42:23;;;;;;;0.90;0.90;;;10.40;99.90;;;;;;4976277;28;20475;-65
2020/12/24 14:44:51;;;;;;;0.80;0.80;;;10.30;99.90;;;;;;4976205;28;20480;-65
2020/12/24 14:47:18;;;;;;;0.60;0.60;;;10.20;99.90;;;;;;4975990;28;20479;-64
2020/12/24 14:49:45;;;;;;;2.20;0.90;;;10.00;99.90;;;;;;4976185;28;20466;-64
2020/12/24 14:52:11;;;;;;;0.70;0.70;;;10.00;99.90;;;;;;4976043;28;20993;-66
2020/12/24 14:54:38;;;;;;;1.60;0.83;;;9.90;99.90;;;;;;4976198;28;20790;-65
2020/12/24 14:57:04;;;;;;;0.80;0.80;;;9.80;99.90;;;;;;4976166;28;20447;-63
2020/12/24 14:59:30;;;;;;;0.73;0.70;;;9.70;99.90;;;;;;4976243;28;20450;-63
2020/12/24 15:01:57;;;;;;;0.70;0.70;;;9.60;99.90;;;;;;4976543;28;20518;-64
2020/12/24 15:04:23;;;;;;;0.93;0.93;;;9.60;99.90;;;;;;4976303;28;20462;-64
2020/12/24 15:06:51;;;;;;;2.90;0.70;;;9.60;99.90;;;;;;4978589;28;20473;-64
2020/12/24 15:09:17;;;;;;;1.70;1.03;;;9.50;99.90;;;;;;4978649;28;20482;-64
2020/12/24 15:11:44;;;;;;;1.00;1.00;;;9.50;99.90;;;;;;4977039;28;20838;-65
2020/12/24 15:14:10;;;;;;;1.40;0.70;;;9.50;99.90;;;;;;4978393;28;20478;-65
2020/12/24 15:16:36;;;;;;;1.10;1.00;;;9.50;99.90;;;;;;4976172;28;20455;-64
2020/12/24 15:19:03;;;;;;;0.73;0.73;;;9.40;99.90;;;;;;4975997;28;20458;-64
2020/12/24 15:21:29;;;;;;;1.53;1.03;;;9.40;99.90;;;;;;4979209;28;20474;-64
2020/12/24 15:23:55;;;;;;;1.40;1.30;;;9.40;99.90;;;;;;4979508;28;20481;-64
2020/12/24 15:26:22;;;;;;;1.00;1.00;;;9.40;99.90;;;;;;4980784;28;20840;-64
2020/12/24 15:28:48;;;;;;;2.50;2.20;;;9.40;99.90;;;;;;4979715;28;20455;-64
2020/12/24 15:31:14;;;;;;;1.50;1.50;;;9.40;99.90;;;;;;4979116;28;20582;-64
2020/12/24 15:33:40;;;;;;;6.63;1.73;;;9.40;99.90;;;;;;4977689;28;20775;-64
2020/12/24 15:36:09;;;;;;;1.37;1.37;;;9.40;99.90;;;;;;4975841;28;20439;-63
2020/12/24 15:38:35;;;;;;;1.40;1.20;;;9.40;99.90;;;;;;4976128;28;20459;-64
2020/12/24 15:41:01;;;;;;;1.83;1.40;;;9.40;99.90;;;;;;4975451;28;20485;-64
2020/12/24 15:43:28;;;;;;;1.10;1.00;;;9.40;99.90;;;;;;4975303;28;20454;-64
2020/12/24 15:45:54;;;;;;;2.40;2.20;;;9.30;99.90;;;;;;4974842;28;20828;-64
2020/12/24 15:48:20;;;;;;;3.13;2.03;;;9.30;99.90;;;;;;4975251;28;20458;-63
2020/12/24 15:50:46;;;;;;;1.90;1.80;;;9.30;99.90;;;;;;4974958;28;20474;-65
2020/12/24 15:53:13;;;;;;;2.43;2.33;;;9.30;99.90;;;;;;4974860;28;20949;-65
2020/12/24 15:55:39;;;;;;;1.20;1.20;;;9.30;99.90;;;;;;4974960;28;20458;-65
2020/12/24 15:58:05;;;;;;;3.37;2.90;;;9.20;99.90;;;;;;4974978;28;20458;-65
2020/12/24 16:00:31;;;;;;;2.77;2.60;;;9.20;99.90;;;;;;4974708;28;21246;-63
2020/12/24 16:02:58;;;;;;;3.00;2.80;;;9.20;99.90;;;;;;4975094;28;20435;-63
2020/12/24 16:05:24;;;;;;;3.50;2.87;;;9.20;99.90;;;;;;4975118;28;20454;-64
2020/12/24 16:07:51;;;;;;;1.97;1.80;;;9.10;99.90;;;;;;4974835;28;20833;-64
2020/12/24 16:10:18;;;;;;;2.50;2.40;;;9.10;99.90;;;;;;4974843;28;20455;-64
2020/12/24 16:12:44;;;;;;;2.53;2.43;;;9.00;99.90;;;;;;4974890;28;20485;-63
2020/12/24 16:15:10;;;;;;;2.90;2.67;;;9.00;99.90;;;;;;4974785;28;20462;-64
2020/12/24 16:17:36;;;;;;;2.20;2.10;;;9.00;99.90;;;;;;4975573;28;20455;-64
2020/12/24 16:20:03;;;;;;;1.73;1.73;;;9.00;99.90;;;;;;4974747;28;20450;-64
2020/12/24 16:22:29;;;;;;;3.97;1.80;;;9.10;99.90;;;;;;4974959;28;20478;-63
2020/12/24 16:24:56;;;;;;;2.93;1.83;;;9.10;99.90;;;;;;4974804;28;20461;-63
2020/12/24 16:27:23;;;;;;;2.00;1.90;;;9.00;99.90;;;;;;4975048;28;20475;-64
2020/12/24 16:29:49;;;;;;;3.17;2.97;;;9.00;99.90;;;;;;4978476;28;20459;-63
2020/12/24 16:32:16;;;;;;;2.10;2.00;;;9.00;99.90;;;;;;4978061;28;20474;-64
2020/12/24 16:34:43;;;;;;;2.70;2.60;;;9.00;99.90;;;;;;4978242;28;20926;-64
2020/12/24 16:37:10;;;;;;;4.80;3.03;;;9.00;99.90;;;;;;4979194;28;20454;-63
2020/12/24 16:39:36;;;;;;;2.60;2.50;;;9.00;99.90;;;;;;4978201;28;20825;-64
2020/12/24 16:42:05;;;;;;;3.23;2.90;;;9.00;99.90;;;;;;4978300;28;20474;-65
2020/12/24 16:44:34;;;;;;;3.50;3.37;;;8.90;99.90;;;;;;4977778;28;20459;-64
2020/12/24 16:47:00;;;;;;;2.80;2.60;;;9.00;99.90;;;;;;4977940;28;20485;-64
2020/12/24 16:49:27;;;;;;;2.40;2.30;;;9.00;99.90;;;;;;4978366;28;20458;-64
2020/12/24 16:51:53;;;;;;;2.90;2.70;;;9.00;99.90;;;;;;4978102;28;20478;-64
2020/12/24 16:54:21;;;;;;;2.87;2.70;;;8.90;99.90;;;;;;4977942;28;20865;-64
2020/12/24 16:56:48;;;;;;;3.60;2.63;;;8.90;99.90;;;;;;4977653;28;20458;-64
2020/12/24 16:59:14;;;;;;;3.20;3.00;;;8.90;99.90;;;;;;4977621;28;20505;-64
2020/12/24 17:01:41;;;;;;;2.60;2.50;;;8.80;99.90;;;;;;4977774;28;20474;-64
2020/12/24 17:04:07;;;;;;;2.97;2.60;;;8.80;99.90;;;;;;4978039;28;20811;-64
2020/12/24 17:06:33;;;;;;;2.87;2.67;;;8.80;99.90;;;;;;4977979;28;20490;-64
2020/12/24 17:09:00;;;;;;;3.40;3.20;;;8.70;99.90;;;;;;4978149;28;20490;-64
2020/12/24 17:11:26;;;;;;;6.60;6.00;;;8.70;99.90;;;;;;4977820;28;20502;-64
2020/12/24 17:13:52;;;;;;;6.20;5.80;;;8.70;99.90;;;;;;4977163;28;20957;-64
2020/12/24 17:16:19;;;;;;;4.10;3.17;;;8.70;99.90;;;;;;4977423;28;20865;-65
2020/12/24 17:18:48;;;;;;;3.80;3.60;;;8.70;99.90;;;;;;4977428;28;20454;-64
2020/12/24 17:21:21;;;;;;;4.37;4.07;;;8.80;99.90;;;;;;4981527;28;20475;-64
2020/12/24 17:23:47;;;;;;;5.33;4.83;;;8.70;99.90;;;;;;4977472;28;20461;-64
2020/12/24 17:26:18;;;;;;;6.97;6.27;;;8.80;99.90;;;;;;4977362;28;20455;-65
2020/12/24 17:28:44;;;;;;;3.33;3.13;;;8.70;99.90;;;;;;4977131;28;20910;-64
2020/12/24 17:31:10;;;;;;;5.30;4.77;;;8.60;99.90;;;;;;4977127;28;20501;-64
2020/12/24 17:33:36;;;;;;;2.20;2.00;;;8.50;99.90;;;;;;4977055;28;20462;-64
2020/12/24 17:36:07;;;;;;;4.40;4.00;;;8.50;99.90;;;;;;4978014;28;20462;-64
2020/12/24 17:38:34;;;;;;;2.30;2.23;;;8.50;99.90;;;;;;4976608;28;21130;-64
2020/12/24 17:41:00;;;;;;;3.70;2.50;;;8.50;99.90;;;;;;4976721;28;20924;-64
2020/12/24 17:43:26;;;;;;;2.90;2.70;;;8.40;99.90;;;;;;4976572;28;20455;-64
2020/12/24 17:45:52;;;;;;;2.23;2.13;;;8.30;99.90;;;;;;4976653;28;20461;-63
2020/12/24 17:48:20;;;;;;;3.97;3.63;;;8.10;99.90;;;;;;4976793;28;20475;-63
2020/12/24 17:50:46;;;;;;;6.03;3.10;;;8.10;99.90;;;;;;4976738;28;20482;-63
2020/12/24 17:53:13;;;;;;;2.10;2.00;;;8.20;99.90;;;;;;4976935;28;20457;-64
2020/12/24 17:55:40;;;;;;;1.87;1.70;;;8.10;99.90;;;;;;4977323;28;20462;-63
2020/12/24 17:58:06;;;;;;;2.17;2.07;;;8.10;99.90;;;;;;4977823;28;20454;-66